sensor_id;sensor_type;location;lat;lon;timestamp;P1;durP1;ratioP1;P2;durP2;ratioP2
6561;SDS011;3314;50.890;4.722;2024-03-25T00:00:41;12.9;;;4.2;;
6561;SDS011;3314;50.890;4.722;2024-03-25T00:02:41;13.2;;;4.0;;
6561;SDS011;3314;50.890;4.722;2024-03-25T00:04:41;11.6;;;4.8;;
6561;SDS011;3314;50.890;4.722;2024-03-25T00:06:41;12.3;;;3.8;;
6561;SDS011;3314;50.890;4.722;2024-03-25T00:08:40;13.7;;;4.0;;
6561;SDS011;3314;50.890;4.722;2024-03-25T00:10:40;15.1;;;3.9;;
6561;SDS011;3314;50.890;4.722;2024-03-25T00:12:40;11.6;;;4.7;;
6561;SDS011;3314;50.890;4.722;2024-03-25T00:14:39;15.6;;;4.8;;
6561;SDS011;3314;50.890;4.722;2024-03-25T00:16:39;14.4;;;4.0;;
6561;SDS011;3314;50.890;4.722;2024-03-25T00:18:39;14.3;;;4.0;;
6561;SDS011;3314;50.890;4.722;2024-03-25T00:20:38;17.5;;;4.2;;
6561;SDS011;3314;50.890;4.722;2024-03-25T00:22:38;15.2;;;4.6;;
6561;SDS011;3314;50.890;4.722;2024-03-25T00:24:42;14.7;;;4.3;;
6561;SDS011;3314;50.890;4.722;2024-03-25T00:26:30;12.9;;;4.6;;
6561;SDS011;3314;50.890;4.722;2024-03-25T00:28:30;16.0;;;4.7;;
6561;SDS011;3314;50.890;4.722;2024-03-25T00:30:29;15.9;;;4.3;;
6561;SDS011;3314;50.890;4.722;2024-03-25T00:32:29;9.9;;;3.5;;
6561;SDS011;3314;50.890;4.722;2024-03-25T00:34:29;11.5;;;4.3;;
6561;SDS011;3314;50.890;4.722;2024-03-25T00:36:29;12.6;;;4.2;;
6561;SDS011;3314;50.890;4.722;2024-03-25T00:38:28;14.3;;;4.5;;
6561;SDS011;3314;50.890;4.722;2024-03-25T00:40:28;12.5;;;4.4;;
6561;SDS011;3314;50.890;4.722;2024-03-25T00:42:27;11.6;;;3.6;;
6561;SDS011;3314;50.890;4.722;2024-03-25T00:44:27;13.8;;;3.9;;
6561;SDS011;3314;50.890;4.722;2024-03-25T00:46:27;13.7;;;4.4;;
6561;SDS011;3314;50.890;4.722;2024-03-25T00:48:27;16.5;;;4.7;;
6561;SDS011;3314;50.890;4.722;2024-03-25T00:50:27;14.7;;;3.9;;
6561;SDS011;3314;50.890;4.722;2024-03-25T00:52:26;13.5;;;4.4;;
6561;SDS011;3314;50.890;4.722;2024-03-25T00:54:26;11.4;;;4.0;;
6561;SDS011;3314;50.890;4.722;2024-03-25T00:56:26;10.8;;;4.2;;
6561;SDS011;3314;50.890;4.722;2024-03-25T00:58:26;12.3;;;3.9;;
6561;SDS011;3314;50.890;4.722;2024-03-25T01:00:27;12.5;;;4.4;;
6561;SDS011;3314;50.890;4.722;2024-03-25T01:02:27;16.5;;;4.6;;
6561;SDS011;3314;50.890;4.722;2024-03-25T01:04:27;13.0;;;4.5;;
6561;SDS011;3314;50.890;4.722;2024-03-25T01:06:27;12.1;;;4.2;;
6561;SDS011;3314;50.890;4.722;2024-03-25T01:08:26;13.5;;;3.9;;
6561;SDS011;3314;50.890;4.722;2024-03-25T01:10:26;15.0;;;4.1;;
6561;SDS011;3314;50.890;4.722;2024-03-25T01:12:26;12.2;;;4.4;;
6561;SDS011;3314;50.890;4.722;2024-03-25T01:14:26;19.0;;;4.5;;
6561;SDS011;3314;50.890;4.722;2024-03-25T01:16:26;12.1;;;3.6;;
6561;SDS011;3314;50.890;4.722;2024-03-25T01:18:26;11.0;;;4.1;;
6561;SDS011;3314;50.890;4.722;2024-03-25T01:20:25;13.0;;;3.7;;
6561;SDS011;3314;50.890;4.722;2024-03-25T01:22:25;11.9;;;3.8;;
6561;SDS011;3314;50.890;4.722;2024-03-25T01:24:25;12.2;;;3.5;;
6561;SDS011;3314;50.890;4.722;2024-03-25T01:26:25;11.2;;;3.5;;
6561;SDS011;3314;50.890;4.722;2024-03-25T01:28:25;13.7;;;3.7;;
6561;SDS011;3314;50.890;4.722;2024-03-25T01:30:25;11.4;;;3.3;;
6561;SDS011;3314;50.890;4.722;2024-03-25T01:32:24;14.6;;;4.3;;
6561;SDS011;3314;50.890;4.722;2024-03-25T01:34:24;10.4;;;3.6;;
6561;SDS011;3314;50.890;4.722;2024-03-25T01:36:23;11.2;;;3.8;;
6561;SDS011;3314;50.890;4.722;2024-03-25T01:38:23;13.5;;;4.1;;
6561;SDS011;3314;50.890;4.722;2024-03-25T01:40:23;10.0;;;3.4;;
6561;SDS011;3314;50.890;4.722;2024-03-25T01:42:22;11.1;;;3.4;;
6561;SDS011;3314;50.890;4.722;2024-03-25T01:44:22;11.1;;;3.2;;
6561;SDS011;3314;50.890;4.722;2024-03-25T01:46:22;11.1;;;3.4;;
6561;SDS011;3314;50.890;4.722;2024-03-25T01:48:22;12.4;;;3.7;;
6561;SDS011;3314;50.890;4.722;2024-03-25T01:50:21;11.0;;;3.9;;
6561;SDS011;3314;50.890;4.722;2024-03-25T01:52:22;10.2;;;3.1;;
6561;SDS011;3314;50.890;4.722;2024-03-25T01:54:14;13.8;;;3.7;;
6561;SDS011;3314;50.890;4.722;2024-03-25T01:56:14;11.9;;;3.5;;
6561;SDS011;3314;50.890;4.722;2024-03-25T01:58:14;10.5;;;3.8;;
6561;SDS011;3314;50.890;4.722;2024-03-25T02:00:14;11.3;;;3.5;;
6561;SDS011;3314;50.890;4.722;2024-03-25T02:02:14;11.9;;;3.3;;
6561;SDS011;3314;50.890;4.722;2024-03-25T02:04:14;12.5;;;3.4;;
6561;SDS011;3314;50.890;4.722;2024-03-25T02:06:15;11.4;;;3.7;;
6561;SDS011;3314;50.890;4.722;2024-03-25T02:08:15;11.5;;;3.9;;
6561;SDS011;3314;50.890;4.722;2024-03-25T02:10:15;10.1;;;2.9;;
6561;SDS011;3314;50.890;4.722;2024-03-25T02:12:15;10.0;;;3.1;;
6561;SDS011;3314;50.890;4.722;2024-03-25T02:14:14;9.3;;;3.1;;
6561;SDS011;3314;50.890;4.722;2024-03-25T02:16:14;11.6;;;3.2;;
6561;SDS011;3314;50.890;4.722;2024-03-25T02:18:16;10.6;;;3.1;;
6561;SDS011;3314;50.890;4.722;2024-03-25T02:20:16;12.4;;;2.9;;
6561;SDS011;3314;50.890;4.722;2024-03-25T02:22:06;12.1;;;3.3;;
6561;SDS011;3314;50.890;4.722;2024-03-25T02:24:05;10.3;;;2.7;;
6561;SDS011;3314;50.890;4.722;2024-03-25T02:26:07;9.7;;;3.0;;
6561;SDS011;3314;50.890;4.722;2024-03-25T02:28:07;10.7;;;2.8;;
6561;SDS011;3314;50.890;4.722;2024-03-25T02:30:09;8.9;;;2.8;;
6561;SDS011;3314;50.890;4.722;2024-03-25T02:32:10;9.6;;;3.4;;
6561;SDS011;3314;50.890;4.722;2024-03-25T02:34:10;13.2;;;3.4;;
6561;SDS011;3314;50.890;4.722;2024-03-25T02:36:10;9.5;;;2.5;;
6561;SDS011;3314;50.890;4.722;2024-03-25T02:38:10;10.4;;;3.4;;
6561;SDS011;3314;50.890;4.722;2024-03-25T02:40:10;12.0;;;2.9;;
6561;SDS011;3314;50.890;4.722;2024-03-25T02:42:10;9.0;;;2.5;;
6561;SDS011;3314;50.890;4.722;2024-03-25T02:44:09;9.6;;;3.2;;
6561;SDS011;3314;50.890;4.722;2024-03-25T02:46:09;10.0;;;2.3;;
6561;SDS011;3314;50.890;4.722;2024-03-25T02:48:09;9.4;;;3.0;;
6561;SDS011;3314;50.890;4.722;2024-03-25T02:50:08;12.6;;;2.8;;
6561;SDS011;3314;50.890;4.722;2024-03-25T02:52:08;12.3;;;3.6;;
6561;SDS011;3314;50.890;4.722;2024-03-25T02:54:10;9.7;;;2.7;;
6561;SDS011;3314;50.890;4.722;2024-03-25T02:55:58;10.6;;;3.2;;
6561;SDS011;3314;50.890;4.722;2024-03-25T02:57:58;15.1;;;3.3;;
6561;SDS011;3314;50.890;4.722;2024-03-25T02:59:58;10.7;;;3.9;;
6561;SDS011;3314;50.890;4.722;2024-03-25T03:01:57;9.5;;;2.7;;
6561;SDS011;3314;50.890;4.722;2024-03-25T03:03:57;11.4;;;2.6;;
6561;SDS011;3314;50.890;4.722;2024-03-25T03:05:57;9.6;;;2.7;;
6561;SDS011;3314;50.890;4.722;2024-03-25T03:07:56;11.6;;;2.7;;
6561;SDS011;3314;50.890;4.722;2024-03-25T03:09:56;7.9;;;2.6;;
6561;SDS011;3314;50.890;4.722;2024-03-25T03:11:55;8.9;;;2.6;;
6561;SDS011;3314;50.890;4.722;2024-03-25T03:13:55;9.8;;;2.8;;
6561;SDS011;3314;50.890;4.722;2024-03-25T03:15:55;14.4;;;3.2;;
6561;SDS011;3314;50.890;4.722;2024-03-25T03:17:55;10.9;;;2.5;;
6561;SDS011;3314;50.890;4.722;2024-03-25T03:19:54;11.4;;;3.1;;
6561;SDS011;3314;50.890;4.722;2024-03-25T03:21:54;9.7;;;2.9;;
6561;SDS011;3314;50.890;4.722;2024-03-25T03:23:54;10.8;;;2.9;;
6561;SDS011;3314;50.890;4.722;2024-03-25T03:25:53;13.1;;;3.4;;
6561;SDS011;3314;50.890;4.722;2024-03-25T03:27:53;13.0;;;3.0;;
6561;SDS011;3314;50.890;4.722;2024-03-25T03:29:53;12.6;;;3.4;;
6561;SDS011;3314;50.890;4.722;2024-03-25T03:31:53;11.5;;;3.1;;
6561;SDS011;3314;50.890;4.722;2024-03-25T03:33:52;11.6;;;3.5;;
6561;SDS011;3314;50.890;4.722;2024-03-25T03:35:52;14.0;;;3.2;;
6561;SDS011;3314;50.890;4.722;2024-03-25T03:37:52;11.3;;;3.4;;
6561;SDS011;3314;50.890;4.722;2024-03-25T03:39:52;11.0;;;2.8;;
6561;SDS011;3314;50.890;4.722;2024-03-25T03:41:51;11.8;;;3.7;;
6561;SDS011;3314;50.890;4.722;2024-03-25T03:43:51;15.0;;;3.9;;
6561;SDS011;3314;50.890;4.722;2024-03-25T03:45:51;12.7;;;3.2;;
6561;SDS011;3314;50.890;4.722;2024-03-25T03:47:51;11.6;;;3.3;;
6561;SDS011;3314;50.890;4.722;2024-03-25T03:49:50;10.2;;;3.5;;
6561;SDS011;3314;50.890;4.722;2024-03-25T03:51:50;12.2;;;3.4;;
6561;SDS011;3314;50.890;4.722;2024-03-25T03:53:50;13.5;;;3.5;;
6561;SDS011;3314;50.890;4.722;2024-03-25T03:55:57;11.5;;;3.2;;
6561;SDS011;3314;50.890;4.722;2024-03-25T03:57:45;10.8;;;3.5;;
6561;SDS011;3314;50.890;4.722;2024-03-25T03:59:45;11.2;;;3.1;;
6561;SDS011;3314;50.890;4.722;2024-03-25T04:01:44;13.2;;;3.2;;
6561;SDS011;3314;50.890;4.722;2024-03-25T04:03:44;12.4;;;3.5;;
6561;SDS011;3314;50.890;4.722;2024-03-25T04:05:44;14.6;;;3.3;;
6561;SDS011;3314;50.890;4.722;2024-03-25T04:07:43;17.3;;;3.7;;
6561;SDS011;3314;50.890;4.722;2024-03-25T04:09:43;11.5;;;3.5;;
6561;SDS011;3314;50.890;4.722;2024-03-25T04:11:43;18.2;;;3.4;;
6561;SDS011;3314;50.890;4.722;2024-03-25T04:13:43;13.1;;;3.7;;
6561;SDS011;3314;50.890;4.722;2024-03-25T04:15:43;12.8;;;4.0;;
6561;SDS011;3314;50.890;4.722;2024-03-25T04:17:43;13.5;;;3.7;;
6561;SDS011;3314;50.890;4.722;2024-03-25T04:19:43;13.3;;;4.0;;
6561;SDS011;3314;50.890;4.722;2024-03-25T04:21:43;12.1;;;4.0;;
6561;SDS011;3314;50.890;4.722;2024-03-25T04:23:43;13.1;;;3.7;;
6561;SDS011;3314;50.890;4.722;2024-03-25T04:25:43;15.3;;;4.3;;
6561;SDS011;3314;50.890;4.722;2024-03-25T04:27:43;13.1;;;4.1;;
6561;SDS011;3314;50.890;4.722;2024-03-25T04:29:43;12.9;;;3.3;;
6561;SDS011;3314;50.890;4.722;2024-03-25T04:31:42;17.6;;;5.3;;
6561;SDS011;3314;50.890;4.722;2024-03-25T04:33:42;14.1;;;4.1;;
6561;SDS011;3314;50.890;4.722;2024-03-25T04:35:43;16.7;;;4.3;;
6561;SDS011;3314;50.890;4.722;2024-03-25T04:37:42;15.7;;;4.6;;
6561;SDS011;3314;50.890;4.722;2024-03-25T04:39:42;13.9;;;4.1;;
6561;SDS011;3314;50.890;4.722;2024-03-25T04:41:42;18.4;;;5.1;;
6561;SDS011;3314;50.890;4.722;2024-03-25T04:43:41;16.8;;;5.0;;
6561;SDS011;3314;50.890;4.722;2024-03-25T04:45:41;16.2;;;4.7;;
6561;SDS011;3314;50.890;4.722;2024-03-25T04:47:41;19.2;;;4.9;;
6561;SDS011;3314;50.890;4.722;2024-03-25T04:49:40;16.0;;;4.7;;
6561;SDS011;3314;50.890;4.722;2024-03-25T04:51:40;16.1;;;4.7;;
6561;SDS011;3314;50.890;4.722;2024-03-25T04:53:40;16.2;;;4.9;;
6561;SDS011;3314;50.890;4.722;2024-03-25T04:55:41;14.3;;;5.1;;
6561;SDS011;3314;50.890;4.722;2024-03-25T04:57:42;16.6;;;4.6;;
6561;SDS011;3314;50.890;4.722;2024-03-25T04:59:41;14.4;;;5.7;;
6561;SDS011;3314;50.890;4.722;2024-03-25T05:01:41;20.1;;;6.3;;
6561;SDS011;3314;50.890;4.722;2024-03-25T05:03:40;15.0;;;5.2;;
6561;SDS011;3314;50.890;4.722;2024-03-25T05:05:40;17.1;;;6.2;;
6561;SDS011;3314;50.890;4.722;2024-03-25T05:07:40;17.0;;;6.1;;
6561;SDS011;3314;50.890;4.722;2024-03-25T05:09:39;21.3;;;6.9;;
6561;SDS011;3314;50.890;4.722;2024-03-25T05:11:39;20.9;;;7.0;;
6561;SDS011;3314;50.890;4.722;2024-03-25T05:13:29;19.8;;;6.9;;
6561;SDS011;3314;50.890;4.722;2024-03-25T05:15:28;24.2;;;6.5;;
6561;SDS011;3314;50.890;4.722;2024-03-25T05:17:28;17.5;;;6.6;;
6561;SDS011;3314;50.890;4.722;2024-03-25T05:19:27;20.1;;;6.3;;
6561;SDS011;3314;50.890;4.722;2024-03-25T05:21:27;22.1;;;6.2;;
6561;SDS011;3314;50.890;4.722;2024-03-25T05:23:27;21.4;;;6.3;;
6561;SDS011;3314;50.890;4.722;2024-03-25T05:25:29;19.8;;;5.9;;
6561;SDS011;3314;50.890;4.722;2024-03-25T05:27:28;20.5;;;6.3;;
6561;SDS011;3314;50.890;4.722;2024-03-25T05:29:28;20.4;;;6.4;;
6561;SDS011;3314;50.890;4.722;2024-03-25T05:31:28;22.2;;;6.4;;
6561;SDS011;3314;50.890;4.722;2024-03-25T05:33:28;17.4;;;5.9;;
6561;SDS011;3314;50.890;4.722;2024-03-25T05:35:28;19.7;;;6.4;;
6561;SDS011;3314;50.890;4.722;2024-03-25T05:37:28;23.7;;;7.5;;
6561;SDS011;3314;50.890;4.722;2024-03-25T05:39:28;17.3;;;7.0;;
6561;SDS011;3314;50.890;4.722;2024-03-25T05:41:27;20.6;;;6.9;;
6561;SDS011;3314;50.890;4.722;2024-03-25T05:43:27;17.8;;;6.2;;
6561;SDS011;3314;50.890;4.722;2024-03-25T05:45:27;24.5;;;7.0;;
6561;SDS011;3314;50.890;4.722;2024-03-25T05:47:26;21.1;;;6.2;;
6561;SDS011;3314;50.890;4.722;2024-03-25T05:49:26;22.0;;;7.5;;
6561;SDS011;3314;50.890;4.722;2024-03-25T05:51:26;23.5;;;7.2;;
6561;SDS011;3314;50.890;4.722;2024-03-25T05:53:26;25.7;;;7.5;;
6561;SDS011;3314;50.890;4.722;2024-03-25T05:55:25;20.3;;;6.7;;
6561;SDS011;3314;50.890;4.722;2024-03-25T05:57:25;27.8;;;7.3;;
6561;SDS011;3314;50.890;4.722;2024-03-25T05:59:25;20.9;;;7.3;;
6561;SDS011;3314;50.890;4.722;2024-03-25T06:01:24;25.1;;;7.3;;
6561;SDS011;3314;50.890;4.722;2024-03-25T06:03:24;22.4;;;7.6;;
6561;SDS011;3314;50.890;4.722;2024-03-25T06:05:24;22.0;;;8.1;;
6561;SDS011;3314;50.890;4.722;2024-03-25T06:07:24;18.6;;;7.1;;
6561;SDS011;3314;50.890;4.722;2024-03-25T06:09:24;20.0;;;7.3;;
6561;SDS011;3314;50.890;4.722;2024-03-25T06:11:24;26.0;;;8.6;;
6561;SDS011;3314;50.890;4.722;2024-03-25T06:13:23;23.4;;;7.9;;
6561;SDS011;3314;50.890;4.722;2024-03-25T06:15:23;32.0;;;9.2;;
6561;SDS011;3314;50.890;4.722;2024-03-25T06:17:23;31.4;;;8.6;;
6561;SDS011;3314;50.890;4.722;2024-03-25T06:19:22;30.2;;;8.5;;
6561;SDS011;3314;50.890;4.722;2024-03-25T06:21:22;29.3;;;8.4;;
6561;SDS011;3314;50.890;4.722;2024-03-25T06:23:23;28.5;;;10.1;;
6561;SDS011;3314;50.890;4.722;2024-03-25T06:25:13;24.0;;;9.4;;
6561;SDS011;3314;50.890;4.722;2024-03-25T06:27:13;29.3;;;9.3;;
6561;SDS011;3314;50.890;4.722;2024-03-25T06:29:14;29.7;;;9.9;;
6561;SDS011;3314;50.890;4.722;2024-03-25T06:33:20;32.5;;;8.6;;
6561;SDS011;3314;50.890;4.722;2024-03-25T06:34:35;28.2;;;9.7;;
6561;SDS011;3314;50.890;4.722;2024-03-25T06:35:13;30.0;;;10.8;;
6561;SDS011;3314;50.890;4.722;2024-03-25T06:37:13;28.9;;;9.3;;
6561;SDS011;3314;50.890;4.722;2024-03-25T06:39:12;31.0;;;10.8;;
6561;SDS011;3314;50.890;4.722;2024-03-25T06:41:12;25.8;;;9.3;;
6561;SDS011;3314;50.890;4.722;2024-03-25T06:43:11;33.2;;;11.0;;
6561;SDS011;3314;50.890;4.722;2024-03-25T06:45:11;29.7;;;10.1;;
6561;SDS011;3314;50.890;4.722;2024-03-25T06:47:11;28.5;;;9.2;;
6561;SDS011;3314;50.890;4.722;2024-03-25T06:49:10;34.6;;;10.6;;
6561;SDS011;3314;50.890;4.722;2024-03-25T06:51:10;31.7;;;9.8;;
6561;SDS011;3314;50.890;4.722;2024-03-25T06:53:10;27.6;;;8.6;;
6561;SDS011;3314;50.890;4.722;2024-03-25T06:55:10;27.7;;;8.7;;
6561;SDS011;3314;50.890;4.722;2024-03-25T06:57:09;32.5;;;9.1;;
6561;SDS011;3314;50.890;4.722;2024-03-25T06:59:09;32.1;;;8.4;;
6561;SDS011;3314;50.890;4.722;2024-03-25T07:01:09;27.6;;;9.0;;
6561;SDS011;3314;50.890;4.722;2024-03-25T07:03:09;25.9;;;8.7;;
6561;SDS011;3314;50.890;4.722;2024-03-25T07:05:09;30.6;;;9.3;;
6561;SDS011;3314;50.890;4.722;2024-03-25T07:07:09;28.9;;;8.7;;
6561;SDS011;3314;50.890;4.722;2024-03-25T07:09:11;26.4;;;9.4;;
6561;SDS011;3314;50.890;4.722;2024-03-25T07:11:11;32.3;;;11.0;;
6561;SDS011;3314;50.890;4.722;2024-03-25T07:13:11;25.0;;;8.2;;
6561;SDS011;3314;50.890;4.722;2024-03-25T07:15:10;32.3;;;9.6;;
6561;SDS011;3314;50.890;4.722;2024-03-25T07:17:10;35.5;;;8.9;;
6561;SDS011;3314;50.890;4.722;2024-03-25T07:19:10;26.9;;;8.4;;
6561;SDS011;3314;50.890;4.722;2024-03-25T07:21:09;23.8;;;8.9;;
6561;SDS011;3314;50.890;4.722;2024-03-25T07:23:09;25.5;;;8.5;;
6561;SDS011;3314;50.890;4.722;2024-03-25T07:25:10;25.7;;;8.3;;
6561;SDS011;3314;50.890;4.722;2024-03-25T07:27:10;27.3;;;8.1;;
6561;SDS011;3314;50.890;4.722;2024-03-25T07:28:59;31.1;;;8.5;;
6561;SDS011;3314;50.890;4.722;2024-03-25T07:30:59;27.3;;;9.0;;
6561;SDS011;3314;50.890;4.722;2024-03-25T07:33:00;33.0;;;8.6;;
6561;SDS011;3314;50.890;4.722;2024-03-25T07:34:59;23.2;;;7.7;;
6561;SDS011;3314;50.890;4.722;2024-03-25T07:36:59;23.7;;;7.4;;
6561;SDS011;3314;50.890;4.722;2024-03-25T07:38:59;27.0;;;7.0;;
6561;SDS011;3314;50.890;4.722;2024-03-25T07:41:02;22.3;;;7.0;;
6561;SDS011;3314;50.890;4.722;2024-03-25T07:43:02;21.9;;;6.6;;
6561;SDS011;3314;50.890;4.722;2024-03-25T07:45:02;25.2;;;7.3;;
6561;SDS011;3314;50.890;4.722;2024-03-25T07:47:02;22.9;;;7.1;;
6561;SDS011;3314;50.890;4.722;2024-03-25T07:49:02;16.5;;;5.7;;
6561;SDS011;3314;50.890;4.722;2024-03-25T07:51:01;23.8;;;6.9;;
6561;SDS011;3314;50.890;4.722;2024-03-25T07:53:01;21.1;;;6.0;;
6561;SDS011;3314;50.890;4.722;2024-03-25T07:55:01;22.0;;;7.2;;
6561;SDS011;3314;50.890;4.722;2024-03-25T07:57:00;19.9;;;5.7;;
6561;SDS011;3314;50.890;4.722;2024-03-25T07:59:01;18.0;;;6.6;;
6561;SDS011;3314;50.890;4.722;2024-03-25T08:01:00;20.8;;;5.6;;
6561;SDS011;3314;50.890;4.722;2024-03-25T08:03:00;18.9;;;5.5;;
6561;SDS011;3314;50.890;4.722;2024-03-25T08:05:00;19.1;;;5.7;;
6561;SDS011;3314;50.890;4.722;2024-03-25T08:06:59;18.9;;;6.0;;
6561;SDS011;3314;50.890;4.722;2024-03-25T08:08:59;15.7;;;5.7;;
6561;SDS011;3314;50.890;4.722;2024-03-25T08:10:59;20.9;;;5.2;;
6561;SDS011;3314;50.890;4.722;2024-03-25T08:12:58;19.3;;;5.1;;
6561;SDS011;3314;50.890;4.722;2024-03-25T08:14:58;16.6;;;5.0;;
6561;SDS011;3314;50.890;4.722;2024-03-25T08:16:58;24.6;;;5.9;;
6561;SDS011;3314;50.890;4.722;2024-03-25T08:18:57;25.7;;;5.6;;
6561;SDS011;3314;50.890;4.722;2024-03-25T08:20:57;18.2;;;5.7;;
6561;SDS011;3314;50.890;4.722;2024-03-25T08:22:57;13.7;;;4.8;;
6561;SDS011;3314;50.890;4.722;2024-03-25T08:24:56;17.5;;;5.2;;
6561;SDS011;3314;50.890;4.722;2024-03-25T08:26:56;20.7;;;5.5;;
6561;SDS011;3314;50.890;4.722;2024-03-25T08:28:56;22.3;;;6.6;;
6561;SDS011;3314;50.890;4.722;2024-03-25T08:30:55;18.5;;;5.9;;
6561;SDS011;3314;50.890;4.722;2024-03-25T08:32:56;20.2;;;5.5;;
6561;SDS011;3314;50.890;4.722;2024-03-25T08:34:56;17.2;;;5.5;;
6561;SDS011;3314;50.890;4.722;2024-03-25T08:36:56;25.2;;;5.4;;
6561;SDS011;3314;50.890;4.722;2024-03-25T08:38:56;19.5;;;6.4;;
6561;SDS011;3314;50.890;4.722;2024-03-25T08:40:55;23.4;;;6.0;;
6561;SDS011;3314;50.890;4.722;2024-03-25T08:42:55;16.7;;;5.5;;
6561;SDS011;3314;50.890;4.722;2024-03-25T08:44:55;26.3;;;5.6;;
6561;SDS011;3314;50.890;4.722;2024-03-25T08:46:45;19.9;;;5.4;;
6561;SDS011;3314;50.890;4.722;2024-03-25T08:48:44;20.8;;;4.6;;
6561;SDS011;3314;50.890;4.722;2024-03-25T08:50:44;22.3;;;4.7;;
6561;SDS011;3314;50.890;4.722;2024-03-25T08:52:43;20.1;;;5.4;;
6561;SDS011;3314;50.890;4.722;2024-03-25T08:54:43;20.0;;;4.6;;
6561;SDS011;3314;50.890;4.722;2024-03-25T08:56:43;17.9;;;4.6;;
6561;SDS011;3314;50.890;4.722;2024-03-25T08:58:42;13.2;;;4.3;;
6561;SDS011;3314;50.890;4.722;2024-03-25T09:00:42;22.4;;;5.7;;
6561;SDS011;3314;50.890;4.722;2024-03-25T09:02:42;18.1;;;4.5;;
6561;SDS011;3314;50.890;4.722;2024-03-25T09:04:42;19.3;;;4.6;;
6561;SDS011;3314;50.890;4.722;2024-03-25T09:06:41;15.7;;;4.9;;
6561;SDS011;3314;50.890;4.722;2024-03-25T09:11:03;18.8;;;4.8;;
6561;SDS011;3314;50.890;4.722;2024-03-25T09:11:15;15.2;;;4.0;;
6561;SDS011;3314;50.890;4.722;2024-03-25T09:12:40;13.0;;;4.2;;
6561;SDS011;3314;50.890;4.722;2024-03-25T09:14:39;14.1;;;4.1;;
6561;SDS011;3314;50.890;4.722;2024-03-25T09:16:39;21.2;;;4.5;;
6561;SDS011;3314;50.890;4.722;2024-03-25T09:18:39;16.1;;;4.1;;
6561;SDS011;3314;50.890;4.722;2024-03-25T09:20:39;14.4;;;4.9;;
6561;SDS011;3314;50.890;4.722;2024-03-25T09:22:38;18.1;;;4.3;;
6561;SDS011;3314;50.890;4.722;2024-03-25T09:24:38;14.5;;;3.8;;
6561;SDS011;3314;50.890;4.722;2024-03-25T09:26:38;14.8;;;3.6;;
6561;SDS011;3314;50.890;4.722;2024-03-25T09:28:37;14.8;;;3.8;;
6561;SDS011;3314;50.890;4.722;2024-03-25T09:30:37;15.8;;;3.5;;
6561;SDS011;3314;50.890;4.722;2024-03-25T09:32:37;16.7;;;3.2;;
6561;SDS011;3314;50.890;4.722;2024-03-25T09:34:37;13.1;;;3.3;;
6561;SDS011;3314;50.890;4.722;2024-03-25T09:36:37;12.9;;;3.8;;
6561;SDS011;3314;50.890;4.722;2024-03-25T09:38:37;19.1;;;4.8;;
6561;SDS011;3314;50.890;4.722;2024-03-25T09:40:39;17.8;;;3.1;;
6561;SDS011;3314;50.890;4.722;2024-03-25T09:42:42;14.4;;;3.3;;
6561;SDS011;3314;50.890;4.722;2024-03-25T09:44:42;10.6;;;2.7;;
6561;SDS011;3314;50.890;4.722;2024-03-25T09:46:42;12.4;;;3.5;;
6561;SDS011;3314;50.890;4.722;2024-03-25T09:48:42;15.6;;;3.3;;
6561;SDS011;3314;50.890;4.722;2024-03-25T09:50:41;13.9;;;3.0;;
6561;SDS011;3314;50.890;4.722;2024-03-25T09:52:41;11.3;;;2.8;;
6561;SDS011;3314;50.890;4.722;2024-03-25T09:54:41;12.1;;;2.9;;
6561;SDS011;3314;50.890;4.722;2024-03-25T09:56:40;13.6;;;2.8;;
6561;SDS011;3314;50.890;4.722;2024-03-25T09:58:41;12.4;;;3.0;;
6561;SDS011;3314;50.890;4.722;2024-03-25T10:00:43;12.8;;;3.0;;
6561;SDS011;3314;50.890;4.722;2024-03-25T10:02:31;11.0;;;2.8;;
6561;SDS011;3314;50.890;4.722;2024-03-25T10:04:31;11.4;;;2.4;;
6561;SDS011;3314;50.890;4.722;2024-03-25T10:06:31;20.3;;;3.5;;
6561;SDS011;3314;50.890;4.722;2024-03-25T10:08:31;13.2;;;2.6;;
6561;SDS011;3314;50.890;4.722;2024-03-25T10:10:33;10.0;;;3.0;;
6561;SDS011;3314;50.890;4.722;2024-03-25T10:12:33;11.5;;;2.4;;
6561;SDS011;3314;50.890;4.722;2024-03-25T10:14:32;8.4;;;2.0;;
6561;SDS011;3314;50.890;4.722;2024-03-25T10:16:32;14.7;;;2.8;;
6561;SDS011;3314;50.890;4.722;2024-03-25T10:18:32;11.0;;;2.7;;
6561;SDS011;3314;50.890;4.722;2024-03-25T10:20:31;14.9;;;2.8;;
6561;SDS011;3314;50.890;4.722;2024-03-25T10:22:40;15.4;;;3.9;;
6561;SDS011;3314;50.890;4.722;2024-03-25T10:24:30;11.1;;;2.7;;
6561;SDS011;3314;50.890;4.722;2024-03-25T10:26:36;13.5;;;2.7;;
6561;SDS011;3314;50.890;4.722;2024-03-25T10:28:35;16.7;;;3.0;;
6561;SDS011;3314;50.890;4.722;2024-03-25T10:30:35;11.5;;;2.7;;
6561;SDS011;3314;50.890;4.722;2024-03-25T10:32:36;14.0;;;3.6;;
6561;SDS011;3314;50.890;4.722;2024-03-25T10:34:36;12.5;;;3.4;;
6561;SDS011;3314;50.890;4.722;2024-03-25T10:36:36;16.3;;;3.4;;
6561;SDS011;3314;50.890;4.722;2024-03-25T10:38:26;13.5;;;3.3;;
6561;SDS011;3314;50.890;4.722;2024-03-25T10:40:27;14.4;;;3.0;;
6561;SDS011;3314;50.890;4.722;2024-03-25T10:42:27;10.7;;;2.5;;
6561;SDS011;3314;50.890;4.722;2024-03-25T10:44:27;14.4;;;3.2;;
6561;SDS011;3314;50.890;4.722;2024-03-25T10:46:29;16.3;;;3.2;;
6561;SDS011;3314;50.890;4.722;2024-03-25T10:48:29;19.8;;;3.9;;
6561;SDS011;3314;50.890;4.722;2024-03-25T10:50:32;12.6;;;3.2;;
6561;SDS011;3314;50.890;4.722;2024-03-25T10:52:24;11.2;;;2.6;;
6561;SDS011;3314;50.890;4.722;2024-03-25T10:54:25;12.7;;;2.8;;
6561;SDS011;3314;50.890;4.722;2024-03-25T10:56:25;11.0;;;2.4;;
6561;SDS011;3314;50.890;4.722;2024-03-25T10:58:25;13.3;;;2.5;;
6561;SDS011;3314;50.890;4.722;2024-03-25T11:00:25;9.0;;;2.2;;
6561;SDS011;3314;50.890;4.722;2024-03-25T11:02:25;10.2;;;2.2;;
6561;SDS011;3314;50.890;4.722;2024-03-25T11:04:25;9.8;;;2.0;;
6561;SDS011;3314;50.890;4.722;2024-03-25T11:06:25;12.6;;;2.1;;
6561;SDS011;3314;50.890;4.722;2024-03-25T11:08:30;12.6;;;2.3;;
6561;SDS011;3314;50.890;4.722;2024-03-25T11:10:30;11.1;;;1.9;;
6561;SDS011;3314;50.890;4.722;2024-03-25T11:12:32;9.2;;;2.0;;
6561;SDS011;3314;50.890;4.722;2024-03-25T11:14:24;9.0;;;1.2;;
6561;SDS011;3314;50.890;4.722;2024-03-25T11:16:28;10.3;;;1.8;;
6561;SDS011;3314;50.890;4.722;2024-03-25T11:18:31;8.9;;;1.6;;
6561;SDS011;3314;50.890;4.722;2024-03-25T11:20:19;8.9;;;1.8;;
6561;SDS011;3314;50.890;4.722;2024-03-25T11:22:23;10.6;;;2.3;;
6561;SDS011;3314;50.890;4.722;2024-03-25T11:24:27;9.5;;;2.0;;
6561;SDS011;3314;50.890;4.722;2024-03-25T11:26:27;10.7;;;1.6;;
6561;SDS011;3314;50.890;4.722;2024-03-25T11:28:27;10.3;;;1.7;;
6561;SDS011;3314;50.890;4.722;2024-03-25T11:30:27;12.9;;;2.0;;
6561;SDS011;3314;50.890;4.722;2024-03-25T11:32:27;10.2;;;2.0;;
6561;SDS011;3314;50.890;4.722;2024-03-25T11:34:17;10.7;;;2.0;;
6561;SDS011;3314;50.890;4.722;2024-03-25T11:36:18;10.6;;;1.7;;
6561;SDS011;3314;50.890;4.722;2024-03-25T11:38:18;8.6;;;1.8;;
6561;SDS011;3314;50.890;4.722;2024-03-25T11:40:18;9.6;;;2.1;;
6561;SDS011;3314;50.890;4.722;2024-03-25T11:42:18;12.2;;;2.3;;
6561;SDS011;3314;50.890;4.722;2024-03-25T11:44:18;8.7;;;1.6;;
6561;SDS011;3314;50.890;4.722;2024-03-25T11:46:24;12.8;;;2.0;;
6561;SDS011;3314;50.890;4.722;2024-03-25T11:48:24;9.7;;;2.3;;
6561;SDS011;3314;50.890;4.722;2024-03-25T11:50:24;10.6;;;2.4;;
6561;SDS011;3314;50.890;4.722;2024-03-25T11:52:23;17.1;;;2.1;;
6561;SDS011;3314;50.890;4.722;2024-03-25T11:54:23;12.6;;;1.9;;
6561;SDS011;3314;50.890;4.722;2024-03-25T11:56:23;6.8;;;1.3;;
6561;SDS011;3314;50.890;4.722;2024-03-25T11:58:22;9.4;;;1.5;;
6561;SDS011;3314;50.890;4.722;2024-03-25T12:00:23;8.9;;;1.8;;
6561;SDS011;3314;50.890;4.722;2024-03-25T12:02:13;11.2;;;2.2;;
6561;SDS011;3314;50.890;4.722;2024-03-25T12:04:15;9.4;;;1.6;;
6561;SDS011;3314;50.890;4.722;2024-03-25T12:06:15;9.1;;;1.8;;
6561;SDS011;3314;50.890;4.722;2024-03-25T12:08:15;9.1;;;1.5;;
6561;SDS011;3314;50.890;4.722;2024-03-25T12:12:21;8.6;;;1.9;;
6561;SDS011;3314;50.890;4.722;2024-03-25T12:12:35;13.1;;;2.2;;
6561;SDS011;3314;50.890;4.722;2024-03-25T12:14:11;11.5;;;2.2;;
6561;SDS011;3314;50.890;4.722;2024-03-25T12:16:11;11.8;;;1.7;;
6561;SDS011;3314;50.890;4.722;2024-03-25T12:18:11;11.1;;;1.7;;
6561;SDS011;3314;50.890;4.722;2024-03-25T12:20:11;10.9;;;2.0;;
6561;SDS011;3314;50.890;4.722;2024-03-25T12:22:11;9.1;;;1.9;;
6561;SDS011;3314;50.890;4.722;2024-03-25T12:24:11;15.5;;;2.6;;
6561;SDS011;3314;50.890;4.722;2024-03-25T12:26:10;8.3;;;2.0;;
6561;SDS011;3314;50.890;4.722;2024-03-25T12:28:10;8.1;;;1.8;;
6561;SDS011;3314;50.890;4.722;2024-03-25T12:30:10;8.6;;;1.4;;
6561;SDS011;3314;50.890;4.722;2024-03-25T12:32:10;9.3;;;1.6;;
6561;SDS011;3314;50.890;4.722;2024-03-25T12:34:10;9.1;;;1.5;;
6561;SDS011;3314;50.890;4.722;2024-03-25T12:36:12;13.3;;;2.0;;